createdAt,value
2023-02-14T00:00:45.815Z,26.25
2023-02-14T00:01:49.610Z,25.60
2023-02-14T00:02:51.984Z,28.40
2023-02-14T00:03:54.599Z,24.05
2023-02-14T00:04:57.263Z,22.63
2023-02-14T00:06:06.436Z,27.23
2023-02-14T00:07:09.101Z,24.00
2023-02-14T00:08:11.702Z,22.30
2023-02-14T00:09:17.688Z,24.52
2023-02-14T00:10:20.157Z,23.75
2023-02-14T00:11:22.508Z,22.30
2023-02-14T00:12:25.296Z,22.60
2023-02-14T00:13:27.729Z,22.65
2023-02-14T00:14:48.915Z,23.85
2023-02-14T00:15:51.753Z,24.05
2023-02-14T00:16:54.518Z,22.33
2023-02-14T00:17:59.921Z,25.35
2023-02-14T00:19:05.734Z,20.65
2023-02-14T00:20:08.977Z,18.98
2023-02-14T00:21:13.281Z,21.38
2023-02-14T00:22:16.160Z,21.02
2023-02-14T00:23:18.878Z,19.25
2023-02-14T00:24:28.025Z,21.35
2023-02-14T00:25:33.665Z,22.05
2023-02-14T00:26:40.234Z,15.98
2023-02-14T00:27:46.987Z,19.27
2023-02-14T00:28:49.907Z,18.05
2023-02-14T00:29:54.747Z,17.52
2023-02-14T00:30:58.346Z,17.58
2023-02-14T00:32:02.191Z,19.73
2023-02-14T00:33:04.836Z,18.33
2023-02-14T00:34:07.863Z,19.95
2023-02-14T00:35:11.530Z,18.85
2023-02-14T00:36:19.837Z,15.20
2023-02-14T00:40:14.372Z,18.50
2023-02-14T00:41:20.306Z,16.15
2023-02-14T00:42:23.002Z,17.17
2023-02-14T00:43:27.880Z,14.77
2023-02-14T00:44:30.773Z,16.15
2023-02-14T00:45:33.290Z,15.00
2023-02-14T00:46:36.195Z,16.55
2023-02-14T00:47:38.837Z,13.40
2023-02-14T00:48:42.051Z,15.52
2023-02-14T00:49:44.428Z,15.80
2023-02-14T00:50:47.162Z,16.38
2023-02-14T00:51:49.553Z,13.25
2023-02-14T00:52:51.876Z,13.77
2023-02-14T00:53:54.399Z,13.70
2023-02-14T00:54:56.852Z,15.13
2023-02-14T00:56:00.359Z,16.17
2023-02-14T00:57:02.746Z,16.08
2023-02-14T00:58:05.595Z,13.57
2023-02-14T00:59:08.055Z,14.90
2023-02-14T01:00:11.231Z,13.68
2023-02-14T01:01:16.095Z,14.07
2023-02-14T01:02:18.608Z,14.15
2023-02-14T01:03:21.289Z,14.48
2023-02-14T01:04:23.632Z,16.30
2023-02-14T01:05:25.955Z,12.27
2023-02-14T01:06:28.831Z,13.55
2023-02-14T01:07:32.281Z,11.82
2023-02-14T01:08:35.088Z,13.77
2023-02-14T01:09:40.204Z,13.75
2023-02-14T01:10:43.685Z,14.35
2023-02-14T01:11:46.107Z,11.60
2023-02-14T01:12:50.348Z,12.40
2023-02-14T01:13:56.329Z,12.85
2023-02-14T01:14:58.812Z,13.35
2023-02-14T01:17:55.193Z,13.57
2023-02-14T01:19:00.189Z,11.70
2023-02-14T01:20:03.095Z,13.50
2023-02-14T01:42:37.076Z,99.22
2023-02-14T01:43:59.406Z,55.40
2023-02-14T01:45:14.575Z,41.45
2023-02-14T01:46:16.968Z,33.53
2023-02-14T01:47:19.402Z,27.85
2023-02-14T01:48:24.118Z,27.20
2023-02-14T01:49:41.134Z,25.10
2023-02-14T01:50:46.357Z,21.75
2023-02-14T01:51:54.195Z,21.40
2023-02-14T01:53:02.433Z,19.38
2023-02-14T01:54:06.948Z,19.33
2023-02-14T01:55:16.985Z,17.08
2023-02-14T01:56:27.229Z,18.70
2023-02-14T01:57:38.930Z,18.73
2023-02-14T01:58:45.053Z,17.02
2023-02-14T01:59:53.324Z,17.35
2023-02-14T02:00:59.168Z,18.30
2023-02-14T02:02:02.331Z,19.63
2023-02-14T02:03:05.471Z,19.15
2023-02-14T02:04:11.788Z,15.77
2023-02-14T02:05:16.144Z,16.65
2023-02-14T02:06:39.503Z,16.33
2023-02-14T02:07:42.168Z,16.10
2023-02-14T02:08:54.461Z,13.88
2023-02-14T02:10:01.170Z,14.80
2023-02-14T02:11:03.535Z,18.67
2023-02-14T02:12:05.956Z,12.93
2023-02-14T02:13:14.935Z,13.88
2023-02-14T02:14:19.968Z,15.55
2023-02-14T02:15:26.489Z,16.67
2023-02-14T02:16:46.241Z,15.35
2023-02-14T02:18:09.480Z,16.92
2023-02-14T02:19:53.937Z,14.98
2023-02-14T02:21:41.445Z,14.35
2023-02-14T02:23:17.864Z,13.38
2023-02-14T02:24:35.388Z,14.27
2023-02-14T02:26:03.972Z,14.65
2023-02-14T02:27:44.352Z,13.55
2023-02-14T02:29:15.360Z,15.50
2023-02-14T02:30:33.171Z,16.50
2023-02-14T02:31:44.496Z,14.63
2023-02-14T02:33:25.379Z,14.90
2023-02-14T02:35:05.548Z,12.90
2023-02-14T02:36:32.729Z,17.08
2023-02-14T02:37:58.913Z,15.90
2023-02-14T02:39:41.080Z,95.70
2023-02-14T02:41:06.354Z,237.82
2023-02-14T02:42:45.504Z,191.52
2023-02-14T02:43:59.848Z,198.32
2023-02-14T02:45:36.768Z,109.93
2023-02-14T02:47:04.310Z,80.78
2023-02-14T02:48:13.764Z,75.90
2023-02-14T02:49:49.804Z,68.88
2023-02-14T02:51:16.382Z,57.92
2023-02-14T02:52:57.916Z,50.40
2023-02-14T02:54:23.657Z,49.80
2023-02-14T02:56:06.477Z,46.55
2023-02-14T02:57:24.217Z,49.28
2023-02-14T02:58:43.831Z,44.40
2023-02-14T02:59:47.229Z,44.78
2023-02-14T03:00:53.088Z,38.78
2023-02-14T03:02:01.534Z,41.50
2023-02-14T03:03:23.702Z,36.92
2023-02-14T03:04:46.228Z,37.85
2023-02-14T03:05:48.622Z,35.60
2023-02-14T03:06:53.320Z,37.17
2023-02-14T03:07:55.944Z,34.63
2023-02-14T03:08:58.266Z,32.88
2023-02-14T03:10:07.714Z,38.30
2023-02-14T03:11:12.071Z,32.60
2023-02-14T03:12:33.265Z,33.83
2023-02-14T03:13:44.191Z,33.08
2023-02-14T03:14:57.374Z,31.33
2023-02-14T03:16:08.670Z,29.20
2023-02-14T03:17:35.022Z,31.50
2023-02-14T03:19:03.221Z,29.13
2023-02-14T03:20:32.968Z,30.45
2023-02-14T03:21:52.259Z,28.92
2023-02-14T03:23:10.910Z,24.55
2023-02-14T03:24:22.996Z,28.23
2023-02-14T03:25:37.600Z,27.30
2023-02-14T03:26:57.119Z,25.70
2023-02-14T03:28:23.744Z,24.27
2023-02-14T03:29:46.180Z,28.65
2023-02-14T03:31:04.730Z,22.73
2023-02-14T03:32:18.807Z,26.40
2023-02-14T03:33:46.609Z,26.77
2023-02-14T03:35:05.178Z,23.20
2023-02-14T03:36:14.802Z,25.42
2023-02-14T03:37:25.136Z,26.48
2023-02-14T03:38:33.746Z,24.85
2023-02-14T03:39:51.563Z,23.90
2023-02-14T03:41:07.094Z,23.50
2023-02-14T03:42:18.825Z,25.40
2023-02-14T03:43:32.945Z,23.83
2023-02-14T03:44:37.856Z,20.98
2023-02-14T03:45:55.735Z,21.20
2023-02-14T03:47:06.320Z,21.67
2023-02-14T03:48:12.396Z,21.17
2023-02-14T03:49:20.789Z,20.55
2023-02-14T03:50:23.681Z,21.08
2023-02-14T03:51:27.552Z,19.27
2023-02-14T03:52:33.492Z,17.77
2023-02-14T03:53:40.176Z,24.40
2023-02-14T03:54:44.402Z,19.67
2023-02-14T03:56:00.651Z,18.70
2023-02-14T03:57:12.442Z,20.10
2023-02-14T03:58:20.698Z,18.70
2023-02-14T03:59:25.330Z,19.00
2023-02-14T04:00:30.326Z,18.42
2023-02-14T04:01:53.578Z,17.55
2023-02-14T04:03:02.090Z,19.83
2023-02-14T04:04:07.352Z,16.38
2023-02-14T04:05:15.840Z,18.05
2023-02-14T04:06:19.855Z,15.07
2023-02-14T04:07:23.676Z,18.63
2023-02-14T04:08:29.443Z,19.80
2023-02-14T04:09:31.753Z,16.02
2023-02-14T04:10:34.319Z,17.27
2023-02-14T04:11:38.471Z,17.98
2023-02-14T04:12:40.829Z,15.65
2023-02-14T04:13:43.422Z,16.95
2023-02-14T04:14:45.805Z,18.40
2023-02-14T04:15:48.221Z,18.45
2023-02-14T04:17:09.423Z,14.60
2023-02-14T04:18:30.617Z,16.52
2023-02-14T04:19:33.005Z,15.32
2023-02-14T04:20:36.963Z,16.70
2023-02-14T04:21:39.412Z,15.80
2023-02-14T04:22:41.988Z,16.55
2023-02-14T04:23:44.434Z,13.02
2023-02-14T04:24:47.002Z,16.13
2023-02-14T04:25:49.479Z,15.38
2023-02-14T04:27:09.810Z,16.10
2023-02-14T04:28:12.987Z,16.33
2023-02-14T04:29:15.296Z,20.48
2023-02-14T04:30:18.226Z,15.30
2023-02-14T04:31:20.832Z,16.40
2023-02-14T04:32:23.448Z,15.02
2023-02-14T04:33:25.838Z,16.25
2023-02-14T04:34:28.234Z,16.40
2023-02-14T04:35:31.208Z,13.60
2023-02-14T04:36:38.684Z,14.60
2023-02-14T04:37:41.661Z,15.55
2023-02-14T04:38:44.082Z,13.13
2023-02-14T04:39:47.044Z,13.40
2023-02-14T04:40:50.385Z,19.17
2023-02-14T04:41:52.778Z,15.10
2023-02-14T04:42:55.511Z,14.27
2023-02-14T04:43:57.858Z,15.05
2023-02-14T04:45:01.957Z,14.63
2023-02-14T04:46:05.488Z,12.55
2023-02-14T04:47:08.574Z,15.18
2023-02-14T04:48:11.147Z,15.88
2023-02-14T04:49:13.514Z,13.25
2023-02-14T04:50:15.896Z,12.95
2023-02-14T04:51:18.309Z,13.40
2023-02-14T04:52:20.829Z,14.98
2023-02-14T04:53:23.170Z,14.07
2023-02-14T04:54:25.666Z,16.17
2023-02-14T04:55:28.114Z,13.82
2023-02-14T04:56:30.483Z,12.20
2023-02-14T04:57:32.997Z,15.07
2023-02-14T04:58:35.639Z,13.57
2023-02-14T04:59:37.958Z,14.93
2023-02-14T05:00:40.503Z,14.95
2023-02-14T05:01:42.958Z,12.70
2023-02-14T05:02:45.365Z,13.18
2023-02-14T05:03:47.732Z,12.73
2023-02-14T05:04:50.009Z,11.60
2023-02-14T05:05:52.298Z,11.10
2023-02-14T05:06:54.592Z,11.98
2023-02-14T05:07:56.887Z,13.43
2023-02-14T05:08:59.950Z,14.50
2023-02-14T05:10:03.675Z,13.55
2023-02-14T05:11:06.137Z,17.17
2023-02-14T05:12:08.548Z,15.88
2023-02-14T05:13:10.939Z,14.55
2023-02-14T05:14:13.838Z,15.50
2023-02-14T05:15:16.256Z,14.38
2023-02-14T05:16:18.709Z,13.10
2023-02-14T05:17:21.073Z,12.95
2023-02-14T05:18:23.810Z,14.27
2023-02-14T05:19:26.980Z,10.73
2023-02-14T05:20:29.778Z,13.20
2023-02-14T05:21:33.131Z,14.43
2023-02-14T05:22:35.479Z,14.23
2023-02-14T05:23:38.056Z,10.93
2023-02-14T05:24:40.442Z,12.63
2023-02-14T05:25:43.517Z,12.50
2023-02-14T05:26:45.942Z,13.38
2023-02-14T05:27:48.283Z,11.77
2023-02-14T05:28:50.656Z,11.63
2023-02-14T05:29:53.116Z,11.95
2023-02-14T05:30:56.893Z,12.18
2023-02-14T05:31:59.453Z,12.38
2023-02-14T05:33:01.845Z,11.50
2023-02-14T05:34:04.220Z,14.45
2023-02-14T05:35:06.745Z,12.52
2023-02-14T05:36:09.944Z,11.00
2023-02-14T05:37:12.280Z,11.32
2023-02-14T05:38:14.768Z,14.13
2023-02-14T05:39:17.388Z,11.50
2023-02-14T05:40:20.009Z,12.10
2023-02-14T05:41:22.348Z,11.52
2023-02-14T05:42:24.713Z,11.75
2023-02-14T05:43:27.271Z,13.07
2023-02-14T05:44:29.601Z,11.98
2023-02-14T05:45:32.152Z,11.93
2023-02-14T05:46:34.548Z,11.85
2023-02-14T05:47:36.951Z,10.95
2023-02-14T05:48:39.267Z,11.10
2023-02-14T05:49:41.595Z,12.27
2023-02-14T05:50:45.453Z,12.95
2023-02-14T05:51:47.783Z,9.88
2023-02-14T05:52:50.185Z,12.45
2023-02-14T05:53:52.612Z,11.40
2023-02-14T05:54:54.972Z,11.80
2023-02-14T05:55:57.311Z,11.85
2023-02-14T05:56:59.679Z,9.80
2023-02-14T05:58:02.212Z,12.60
2023-02-14T05:59:04.681Z,11.23
2023-02-14T06:00:08.359Z,11.80
2023-02-14T06:01:16.750Z,13.50
2023-02-14T06:02:19.056Z,13.55
2023-02-14T06:03:21.382Z,10.85
2023-02-14T06:04:23.739Z,10.35
2023-02-14T06:05:27.052Z,9.40
2023-02-14T06:06:29.420Z,9.60
2023-02-14T06:07:31.838Z,10.70
2023-02-14T06:08:34.246Z,10.43
2023-02-14T06:09:36.947Z,10.05
2023-02-14T06:10:39.338Z,11.55
2023-02-14T06:11:41.689Z,10.00
2023-02-14T06:12:44.626Z,9.25
2023-02-14T06:13:47.003Z,11.55
2023-02-14T06:14:49.320Z,10.38
2023-02-14T06:15:51.771Z,10.18
2023-02-14T06:16:54.207Z,8.40
2023-02-14T06:17:57.770Z,9.85
2023-02-14T06:19:00.120Z,10.93
2023-02-14T06:20:02.496Z,9.30
2023-02-14T06:21:05.111Z,11.27
2023-02-14T06:22:07.428Z,11.93
2023-02-14T06:23:09.994Z,11.10
2023-02-14T06:24:12.429Z,12.05
2023-02-14T06:25:14.861Z,11.18
2023-02-14T06:26:17.293Z,11.32
2023-02-14T06:27:19.644Z,8.98
2023-02-14T06:28:22.751Z,10.10
2023-02-14T06:29:25.489Z,11.70
2023-02-14T06:30:28.993Z,11.75
2023-02-14T06:31:31.872Z,10.15
2023-02-14T06:32:34.233Z,10.57
2023-02-14T06:33:36.551Z,10.27
2023-02-14T06:34:40.832Z,9.27
2023-02-14T06:35:43.257Z,10.32
2023-02-14T06:36:45.599Z,11.57
2023-02-14T06:37:48.066Z,11.85
2023-02-14T06:38:50.695Z,9.27
2023-02-14T06:39:53.078Z,10.70
2023-02-14T06:40:55.374Z,11.73
2023-02-14T06:41:57.713Z,10.70
2023-02-14T06:43:00.047Z,10.57
2023-02-14T06:44:02.387Z,11.80
2023-02-14T06:45:05.775Z,11.23
2023-02-14T06:46:08.135Z,10.85
2023-02-14T06:47:10.546Z,11.07
2023-02-14T06:48:13.116Z,9.80
2023-02-14T06:49:15.485Z,11.35
2023-02-14T06:50:17.953Z,9.43
2023-02-14T06:51:20.326Z,16.33
2023-02-14T06:52:22.761Z,165.75
2023-02-14T06:53:25.186Z,133.32
2023-02-14T06:54:27.534Z,111.68
2023-02-14T06:55:29.879Z,94.35
2023-02-14T06:56:32.313Z,80.40
2023-02-14T06:57:34.673Z,79.40
2023-02-14T06:58:37.769Z,73.63
2023-02-14T06:59:40.090Z,62.80
2023-02-14T07:00:42.605Z,63.95
2023-02-14T07:01:45.034Z,57.42
2023-02-14T07:02:47.582Z,44.38
2023-02-14T07:03:50.189Z,43.95
2023-02-14T07:04:52.577Z,40.60
2023-02-14T07:05:55.092Z,41.67
2023-02-14T07:06:58.106Z,34.10
2023-02-14T07:08:00.712Z,27.25
2023-02-14T07:09:03.803Z,28.58
2023-02-14T07:10:06.738Z,22.67
2023-02-14T07:11:09.031Z,22.23
2023-02-14T07:12:11.411Z,18.95
2023-02-14T07:13:14.015Z,22.77
2023-02-14T07:14:16.402Z,21.92
2023-02-14T07:15:18.857Z,19.02
2023-02-14T07:16:21.212Z,22.75
2023-02-14T07:17:23.663Z,16.80
2023-02-14T07:18:26.109Z,18.52
2023-02-14T07:19:28.436Z,14.43
2023-02-14T07:20:30.936Z,25.15
2023-02-14T07:21:33.603Z,14.30
2023-02-14T07:22:36.629Z,17.52
2023-02-14T07:23:38.964Z,17.83
2023-02-14T07:24:41.980Z,16.90
2023-02-14T07:25:44.288Z,15.68
2023-02-14T07:26:47.044Z,15.45
2023-02-14T07:27:49.387Z,17.02
2023-02-14T07:28:51.813Z,16.65
2023-02-14T07:29:54.376Z,17.13
2023-02-14T07:31:01.534Z,17.98
2023-02-14T07:32:04.465Z,20.27
2023-02-14T07:33:06.913Z,20.90
2023-02-14T07:34:09.234Z,18.13
2023-02-14T07:35:13.314Z,19.38
2023-02-14T07:36:17.048Z,18.02
2023-02-14T07:37:19.768Z,15.52
2023-02-14T07:38:22.204Z,24.92
2023-02-14T07:39:24.695Z,19.02
2023-02-14T07:40:27.030Z,17.92
2023-02-14T07:41:29.327Z,16.35
2023-02-14T07:42:31.653Z,13.68
2023-02-14T07:43:35.319Z,16.95
2023-02-14T07:44:41.136Z,15.90
2023-02-14T07:45:43.414Z,15.95
2023-02-14T07:46:45.765Z,16.00
2023-02-14T07:47:50.057Z,15.55
2023-02-14T07:48:52.579Z,15.27
2023-02-14T07:49:54.955Z,15.65
2023-02-14T07:50:57.851Z,18.13
2023-02-14T07:52:01.109Z,16.55
2023-02-14T07:53:03.512Z,23.80
2023-02-14T07:54:05.893Z,26.02
2023-02-14T07:55:08.536Z,30.80
2023-02-14T07:56:10.929Z,90.15
2023-02-14T07:57:13.528Z,66.57
2023-02-14T07:58:15.876Z,58.17
2023-02-14T07:59:18.197Z,36.75
2023-02-14T08:00:21.345Z,25.75
2023-02-14T08:01:23.791Z,26.98
2023-02-14T08:02:26.194Z,27.35
2023-02-14T08:03:38.094Z,19.00
2023-02-14T08:04:40.380Z,25.10
2023-02-14T08:05:43.089Z,23.45
2023-02-14T08:06:45.404Z,22.92
2023-02-14T08:07:48.290Z,21.48
2023-02-14T08:08:50.692Z,22.38
2023-02-14T08:09:53.179Z,27.42
2023-02-14T08:10:55.805Z,20.63
2023-02-14T08:12:17.110Z,22.00
2023-02-14T08:13:19.623Z,18.42
2023-02-14T08:14:22.761Z,20.17
2023-02-14T08:15:48.436Z,21.08
2023-02-14T08:16:50.758Z,18.35
2023-02-14T08:17:53.223Z,18.65
2023-02-14T08:18:55.693Z,18.75
2023-02-14T08:19:58.316Z,21.30
2023-02-14T08:21:01.830Z,19.10
2023-02-14T08:22:04.658Z,19.20
2023-02-14T08:23:07.300Z,19.95
2023-02-14T08:24:09.628Z,20.60
2023-02-14T08:25:11.993Z,17.88
2023-02-14T08:26:14.803Z,18.17
2023-02-14T08:27:17.454Z,16.38
2023-02-14T08:28:22.890Z,22.23
2023-02-14T08:29:25.539Z,19.75
2023-02-14T08:30:27.965Z,15.82
2023-02-14T08:31:36.263Z,20.63
2023-02-14T08:32:39.124Z,19.38
2023-02-14T08:33:44.100Z,21.10
2023-02-14T08:34:47.169Z,20.02
2023-02-14T08:35:51.537Z,20.85
2023-02-14T08:36:54.782Z,19.48
2023-02-14T08:37:57.152Z,20.48
2023-02-14T08:38:59.525Z,20.52
2023-02-14T08:40:02.060Z,19.20
2023-02-14T08:41:08.064Z,19.35
2023-02-14T08:42:11.992Z,19.67
2023-02-14T08:43:15.012Z,17.77
2023-02-14T08:44:17.492Z,19.33
2023-02-14T08:45:20.237Z,19.55
2023-02-14T08:46:22.617Z,18.52
2023-02-14T08:47:25.046Z,19.85
2023-02-14T08:48:27.542Z,19.17
2023-02-14T08:49:29.895Z,18.00
2023-02-14T08:50:32.723Z,21.95
2023-02-14T08:51:35.047Z,19.00
2023-02-14T08:52:43.728Z,19.27
2023-02-14T08:53:46.339Z,19.80
2023-02-14T08:54:48.742Z,19.40
2023-02-14T08:55:51.100Z,19.05
2023-02-14T08:56:53.430Z,18.80
2023-02-14T08:57:57.528Z,18.02
2023-02-14T08:58:59.885Z,18.92
2023-02-14T09:00:04.504Z,16.40
2023-02-14T09:01:11.307Z,14.07
2023-02-14T09:02:14.170Z,18.52
2023-02-14T09:03:16.659Z,17.30
2023-02-14T09:04:19.067Z,18.15
2023-02-14T09:05:23.281Z,19.13
2023-02-14T09:06:26.236Z,19.35
2023-02-14T09:07:28.665Z,19.38
2023-02-14T09:08:31.567Z,16.98
2023-02-14T09:09:34.098Z,19.00
2023-02-14T09:10:36.876Z,19.25
2023-02-14T09:11:39.192Z,20.20
2023-02-14T09:12:42.314Z,16.23
2023-02-14T09:13:45.794Z,16.75
2023-02-14T09:14:48.163Z,18.90
2023-02-14T09:15:50.635Z,16.17
2023-02-14T09:16:53.005Z,16.52
2023-02-14T09:17:55.493Z,17.83
2023-02-14T09:18:57.899Z,19.80
2023-02-14T09:20:00.335Z,19.77
2023-02-14T09:21:06.896Z,19.73
2023-02-14T09:22:10.767Z,16.38
2023-02-14T09:23:13.265Z,15.90
2023-02-14T09:24:15.662Z,30.17
2023-02-14T09:25:18.120Z,28.33
2023-02-14T09:26:21.283Z,27.83
2023-02-14T09:27:23.625Z,27.77
2023-02-14T09:28:25.951Z,22.45
2023-02-14T09:29:29.140Z,19.63
2023-02-14T09:30:31.556Z,22.50
2023-02-14T09:31:34.040Z,19.98
2023-02-14T09:32:36.444Z,22.77
2023-02-14T09:33:39.384Z,21.67
2023-02-14T09:34:43.786Z,25.13
2023-02-14T09:35:46.381Z,24.23
2023-02-14T09:36:48.832Z,20.33
2023-02-14T09:37:51.391Z,19.70
2023-02-14T09:38:53.796Z,22.00
2023-02-14T09:39:56.291Z,24.75
2023-02-14T09:40:58.960Z,23.08
2023-02-14T09:42:08.724Z,19.45
2023-02-14T09:43:30.157Z,21.33
2023-02-14T09:44:39.846Z,18.83
2023-02-14T09:45:47.543Z,18.88
2023-02-14T09:46:54.630Z,24.80
2023-02-14T09:48:12.234Z,26.17
2023-02-14T09:49:17.912Z,21.10
2023-02-14T09:50:23.377Z,20.02
2023-02-14T09:51:31.126Z,21.58
2023-02-14T09:52:34.053Z,22.02
2023-02-14T09:53:44.184Z,17.70
2023-02-14T09:54:53.330Z,16.58
2023-02-14T09:56:10.160Z,19.50
2023-02-14T09:57:21.499Z,25.02
2023-02-14T09:58:33.284Z,20.30
2023-02-14T09:59:51.547Z,20.02
2023-02-14T10:01:02.291Z,18.73
2023-02-14T10:02:21.537Z,19.95
2023-02-14T10:03:29.872Z,16.60
2023-02-14T10:04:32.645Z,16.75
2023-02-14T10:06:04.091Z,17.58
2023-02-14T10:07:19.852Z,19.77
2023-02-14T10:09:00.129Z,20.00
2023-02-14T10:10:31.042Z,18.73
2023-02-14T10:11:34.291Z,16.73
2023-02-14T10:12:39.912Z,14.20
2023-02-14T10:13:48.435Z,14.60
2023-02-14T10:14:53.264Z,14.40
2023-02-14T10:16:31.581Z,13.50
2023-02-14T10:17:44.714Z,15.20
2023-02-14T10:18:53.520Z,16.17
2023-02-14T10:20:04.078Z,14.57
2023-02-14T10:21:09.202Z,16.63
2023-02-14T10:22:16.522Z,20.08
2023-02-14T10:23:29.161Z,20.00
2023-02-14T10:24:44.973Z,19.30
2023-02-14T10:26:01.983Z,17.38
2023-02-14T10:27:29.559Z,17.40
2023-02-14T10:28:55.009Z,17.38
2023-02-14T10:29:57.513Z,22.42
2023-02-14T10:31:21.844Z,14.95
2023-02-14T10:32:45.055Z,22.45
2023-02-14T10:33:57.882Z,14.68
2023-02-14T10:35:08.326Z,15.68
2023-02-14T10:36:36.537Z,15.90
2023-02-14T10:37:52.137Z,12.38
2023-02-14T10:39:01.481Z,12.13
2023-02-14T10:40:20.823Z,15.77
2023-02-14T10:41:31.710Z,13.23
2023-02-14T10:42:36.781Z,13.90
2023-02-14T10:44:13.400Z,15.95
2023-02-14T10:45:37.373Z,13.55
2023-02-14T10:46:48.420Z,15.32
2023-02-14T10:48:05.731Z,12.57
2023-02-14T10:49:33.926Z,11.93
2023-02-14T10:50:57.596Z,11.88
2023-02-14T10:52:24.750Z,12.52
2023-02-14T10:53:51.410Z,10.40
2023-02-14T10:55:08.489Z,12.45
2023-02-14T10:56:20.033Z,15.25
2023-02-14T10:57:35.062Z,16.77
2023-02-14T10:58:40.040Z,12.27
2023-02-14T10:59:57.801Z,12.13
2023-02-14T11:01:15.445Z,23.10
2023-02-14T11:02:25.590Z,11.52
2023-02-14T11:03:29.548Z,13.90
2023-02-14T11:04:32.430Z,12.57
2023-02-14T11:05:38.178Z,11.57
2023-02-14T11:06:40.576Z,12.40
2023-02-14T11:07:44.837Z,16.17
2023-02-14T11:08:47.214Z,11.05
2023-02-14T11:09:49.785Z,11.15
2023-02-14T11:10:57.188Z,12.32
2023-02-14T11:12:00.498Z,11.57
2023-02-14T11:13:02.928Z,10.82
2023-02-14T11:14:36.512Z,15.02
2023-02-14T11:15:40.499Z,11.60
2023-02-14T11:16:42.870Z,12.80
2023-02-14T11:17:45.541Z,10.70
2023-02-14T11:19:05.819Z,11.77
2023-02-14T11:20:24.848Z,12.90
2023-02-14T11:21:40.668Z,25.90
2023-02-14T11:22:43.055Z,11.98
2023-02-14T11:23:48.480Z,12.63
2023-02-14T11:25:06.578Z,12.40
2023-02-14T11:26:15.512Z,75.28
2023-02-14T11:27:20.163Z,106.10
2023-02-14T11:28:23.206Z,80.38
2023-02-14T11:29:33.053Z,49.67
2023-02-14T11:30:39.687Z,40.80
2023-02-14T11:31:42.972Z,36.75
2023-02-14T11:32:54.941Z,33.83
2023-02-14T11:33:58.356Z,80.18
2023-02-14T11:35:06.939Z,91.70
2023-02-14T11:36:17.447Z,96.85
2023-02-14T11:37:22.918Z,82.00
2023-02-14T11:38:35.748Z,79.22
2023-02-14T11:39:39.690Z,61.00
2023-02-14T11:40:42.192Z,50.42
2023-02-14T11:42:05.293Z,41.13
2023-02-14T11:43:14.343Z,27.58
2023-02-14T11:44:24.126Z,27.95
2023-02-14T11:45:31.249Z,22.80
2023-02-14T11:46:41.239Z,26.73
2023-02-14T11:47:46.674Z,24.65
2023-02-14T11:49:02.041Z,28.98
2023-02-14T11:50:22.211Z,24.67
2023-02-14T11:51:29.508Z,22.98
2023-02-14T11:52:33.507Z,25.27
2023-02-14T11:53:45.982Z,22.45
2023-02-14T11:54:49.439Z,22.95
2023-02-14T11:55:55.891Z,22.00
2023-02-14T11:57:17.403Z,20.80
2023-02-14T11:58:32.391Z,24.65
2023-02-14T11:59:53.377Z,20.98
2023-02-14T12:00:55.878Z,23.25
2023-02-14T12:02:02.627Z,21.42
2023-02-14T12:03:06.727Z,20.83
2023-02-14T12:04:38.186Z,19.77
2023-02-14T12:05:50.041Z,22.05
2023-02-14T12:06:52.528Z,19.33
2023-02-14T12:08:04.761Z,19.90
2023-02-14T12:09:22.343Z,50.10
2023-02-14T12:10:24.771Z,58.08
2023-02-14T12:11:28.901Z,59.55
2023-02-14T12:12:31.341Z,52.63
2023-02-14T12:13:33.676Z,48.50
2023-02-14T12:14:36.130Z,36.22
2023-02-14T12:15:44.590Z,28.83
2023-02-14T12:16:56.196Z,29.88
2023-02-14T12:18:25.236Z,25.50
2023-02-14T12:19:40.447Z,24.30
2023-02-14T12:21:04.353Z,25.88
2023-02-14T12:22:07.196Z,18.42
2023-02-14T12:23:22.637Z,25.25
2023-02-14T12:24:34.108Z,21.73
2023-02-14T12:25:50.590Z,24.00
2023-02-14T12:27:04.658Z,24.33
2023-02-14T12:28:25.927Z,21.42
2023-02-14T12:29:45.743Z,27.48
2023-02-14T12:30:49.469Z,20.55
2023-02-14T12:31:53.013Z,21.65
2023-02-14T12:32:56.616Z,20.92
2023-02-14T12:33:59.280Z,19.85
2023-02-14T12:35:16.976Z,19.27
2023-02-14T12:36:57.263Z,20.90
2023-02-14T12:38:19.239Z,20.35
2023-02-14T12:39:48.791Z,23.30
2023-02-14T12:40:57.154Z,19.48
2023-02-14T12:42:05.662Z,16.52
2023-02-14T12:43:24.472Z,22.15
2023-02-14T12:44:51.855Z,17.73
2023-02-14T12:46:16.416Z,16.23
2023-02-14T12:47:41.989Z,18.02
2023-02-14T12:49:05.571Z,16.92
2023-02-14T12:50:34.118Z,22.25
2023-02-14T12:51:56.315Z,16.58
2023-02-14T12:53:20.045Z,14.88
2023-02-14T12:55:10.329Z,17.77
2023-02-14T12:56:41.692Z,20.05
2023-02-14T12:57:54.102Z,17.23
2023-02-14T12:59:08.199Z,11.98
2023-02-14T13:00:14.780Z,14.20
2023-02-14T13:01:24.753Z,51.53
2023-02-14T13:03:03.896Z,142.17
2023-02-14T13:04:18.052Z,61.47
2023-02-14T13:05:39.315Z,38.38
2023-02-14T13:07:00.281Z,31.58
2023-02-14T13:08:30.031Z,34.45
2023-02-14T13:09:54.591Z,35.97
2023-02-14T13:11:22.440Z,27.77
2023-02-14T13:12:51.728Z,27.38
2023-02-14T13:14:31.369Z,20.35
2023-02-14T13:15:47.391Z,21.70
2023-02-14T13:16:57.233Z,26.13
2023-02-14T13:18:25.956Z,20.25
2023-02-14T13:19:36.507Z,19.40
2023-02-14T13:21:00.676Z,19.60
2023-02-14T13:22:06.728Z,19.52
2023-02-14T13:23:24.616Z,20.35
2023-02-14T13:24:42.901Z,16.83
2023-02-14T13:25:56.125Z,19.60
2023-02-14T13:27:01.842Z,18.40
2023-02-14T13:28:10.096Z,21.38
2023-02-14T13:29:23.485Z,19.83
2023-02-14T13:30:33.282Z,18.98
2023-02-14T13:31:36.514Z,15.77
2023-02-14T13:32:45.347Z,18.77
2023-02-14T13:33:56.003Z,19.15
2023-02-14T13:34:59.523Z,16.23
2023-02-14T13:36:06.468Z,17.35
2023-02-14T13:37:12.581Z,17.20
2023-02-14T13:38:17.377Z,17.92
2023-02-14T13:39:36.130Z,17.55
2023-02-14T13:40:41.501Z,21.00
2023-02-14T13:41:44.380Z,15.80
2023-02-14T13:42:52.235Z,18.33
2023-02-14T13:44:01.548Z,20.48
2023-02-14T13:45:04.221Z,17.95
2023-02-14T13:46:06.654Z,18.05
2023-02-14T13:47:17.662Z,16.63
2023-02-14T13:48:23.431Z,18.23
2023-02-14T13:49:30.683Z,17.13
2023-02-14T13:50:36.921Z,15.27
2023-02-14T13:51:54.495Z,15.90
2023-02-14T13:52:56.919Z,16.40
2023-02-14T13:53:59.254Z,14.95
2023-02-14T13:55:06.322Z,16.15
2023-02-14T13:56:17.392Z,17.67
2023-02-14T13:57:34.208Z,14.20
2023-02-14T13:58:36.753Z,15.52
2023-02-14T13:59:39.456Z,16.50
2023-02-14T14:00:49.943Z,14.60
2023-02-14T14:01:52.346Z,16.92
2023-02-14T14:02:56.665Z,13.57
2023-02-14T14:04:05.927Z,15.90
2023-02-14T14:05:47.997Z,14.20
2023-02-14T14:07:18.041Z,22.33
2023-02-14T14:08:20.411Z,15.23
2023-02-14T14:09:44.179Z,15.75
2023-02-14T14:10:53.012Z,16.95
2023-02-14T14:11:55.539Z,13.55
2023-02-14T14:12:57.985Z,27.52
2023-02-14T14:14:01.999Z,12.10
2023-02-14T14:15:07.229Z,13.13
2023-02-14T14:16:23.927Z,13.25
2023-02-14T14:17:27.510Z,13.15
2023-02-14T14:18:38.395Z,13.43
2023-02-14T14:19:41.946Z,17.95
2023-02-14T14:20:47.940Z,15.98
2023-02-14T14:22:09.695Z,14.43
2023-02-14T14:25:40.995Z,13.45
2023-02-14T14:26:45.488Z,13.57
2023-02-14T14:27:47.911Z,14.88
2023-02-14T14:28:50.361Z,17.55
2023-02-14T14:29:58.764Z,16.13
2023-02-14T14:31:01.596Z,12.70
2023-02-14T14:32:11.477Z,16.42
2023-02-14T14:33:30.320Z,16.17
2023-02-14T14:34:32.700Z,12.52
2023-02-14T14:35:35.097Z,15.73
2023-02-14T14:36:37.567Z,14.00
2023-02-14T14:37:49.697Z,17.77
2023-02-14T14:38:55.841Z,13.02
2023-02-14T14:40:04.587Z,12.25
2023-02-14T14:41:07.041Z,13.75
2023-02-14T14:42:16.789Z,14.55
2023-02-14T14:43:31.699Z,15.48
2023-02-14T14:44:36.066Z,15.60
2023-02-14T14:45:40.676Z,15.15
2023-02-14T14:46:43.168Z,15.95
2023-02-14T14:47:46.580Z,13.85
2023-02-14T14:48:51.050Z,16.70
2023-02-14T14:49:59.157Z,13.30
2023-02-14T14:51:01.615Z,17.60
2023-02-14T14:52:21.739Z,14.35
2023-02-14T14:53:42.426Z,14.73
2023-02-14T14:54:44.813Z,19.77
2023-02-14T14:55:52.052Z,13.63
2023-02-14T14:57:01.596Z,15.90
2023-02-14T14:58:10.928Z,14.55
2023-02-14T14:59:39.910Z,13.32
2023-02-14T15:00:51.911Z,17.30
2023-02-14T15:01:54.659Z,19.00
2023-02-14T15:03:17.264Z,17.20
2023-02-14T15:04:26.511Z,12.65
2023-02-14T15:05:43.978Z,19.15
2023-02-14T15:06:48.436Z,14.32
2023-02-14T15:07:50.815Z,16.15